createdAt,value
2019-01-29T00:00:20.684Z,1010.52
2019-01-29T00:01:01.277Z,1010.56
2019-01-29T00:01:41.888Z,1010.51
2019-01-29T00:02:22.472Z,1010.54
2019-01-29T00:03:03.089Z,1010.53
2019-01-29T00:03:43.698Z,1010.57
2019-01-29T00:04:24.318Z,1010.56
2019-01-29T00:05:04.927Z,1010.58
2019-01-29T00:05:45.539Z,1010.59
2019-01-29T00:06:26.130Z,1010.57
2019-01-29T00:07:06.764Z,1010.61
2019-01-29T00:07:47.393Z,1010.59
2019-01-29T00:08:28.023Z,1010.61
2019-01-29T00:09:08.659Z,1010.56
2019-01-29T00:09:49.273Z,1010.59
2019-01-29T00:10:29.888Z,1010.58
2019-01-29T00:11:10.504Z,1010.59
2019-01-29T00:11:51.133Z,1010.6
2019-01-29T00:12:31.750Z,1010.63
2019-01-29T00:13:12.355Z,1010.62
2019-01-29T00:13:52.953Z,1010.62
2019-01-29T00:14:33.582Z,1010.67
2019-01-29T00:15:14.186Z,1010.66
2019-01-29T00:15:54.812Z,1010.67
2019-01-29T00:16:35.424Z,1010.69
2019-01-29T00:17:16.039Z,1010.68
2019-01-29T00:17:56.657Z,1010.69
2019-01-29T00:18:37.289Z,1010.76
2019-01-29T00:19:17.888Z,1010.71
2019-01-29T00:19:58.545Z,1010.73
2019-01-29T00:20:39.174Z,1010.7
2019-01-29T00:21:19.806Z,1010.61
2019-01-29T00:22:00.414Z,1010.6
2019-01-29T00:22:41.054Z,1010.63
2019-01-29T00:23:21.648Z,1010.65
2019-01-29T00:24:02.254Z,1010.66
2019-01-29T00:24:42.863Z,1010.61
2019-01-29T00:25:23.469Z,1010.61
2019-01-29T00:26:04.054Z,1010.61
2019-01-29T00:26:44.642Z,1010.6
2019-01-29T00:27:25.254Z,1010.63
2019-01-29T00:28:05.850Z,1010.64
2019-01-29T00:28:46.442Z,1010.63
2019-01-29T00:29:27.016Z,1010.7
2019-01-29T00:30:07.622Z,1010.72
2019-01-29T00:30:48.244Z,1010.72
2019-01-29T00:31:28.844Z,1010.67
2019-01-29T00:32:09.452Z,1010.65
2019-01-29T00:32:50.071Z,1010.65
2019-01-29T00:33:30.688Z,1010.61
2019-01-29T00:34:11.307Z,1010.6
2019-01-29T00:34:51.912Z,1010.59
2019-01-29T00:35:32.541Z,1010.59
2019-01-29T00:36:13.161Z,1010.58
2019-01-29T00:36:53.834Z,1010.64
2019-01-29T00:37:34.442Z,1010.64
2019-01-29T00:38:15.065Z,1010.67
2019-01-29T00:38:55.743Z,1010.63
2019-01-29T00:39:36.348Z,1010.61
2019-01-29T00:40:16.944Z,1010.57
2019-01-29T00:40:57.559Z,1010.56
2019-01-29T00:41:38.190Z,1010.58
2019-01-29T00:42:18.827Z,1010.55
2019-01-29T00:42:59.431Z,1010.58
2019-01-29T00:43:40.042Z,1010.6
2019-01-29T00:44:20.630Z,1010.55
2019-01-29T00:45:01.265Z,1010.53
2019-01-29T00:45:41.859Z,1010.52
2019-01-29T00:46:22.458Z,1010.53
2019-01-29T00:47:03.084Z,1010.52
2019-01-29T00:47:43.688Z,1010.51
2019-01-29T00:48:24.284Z,1010.51
2019-01-29T00:49:04.874Z,1010.45
2019-01-29T00:49:45.486Z,1010.45
2019-01-29T00:50:26.076Z,1010.45
2019-01-29T00:51:06.671Z,1010.47
2019-01-29T00:51:47.287Z,1010.44
2019-01-29T00:52:27.895Z,1010.44
2019-01-29T00:53:08.521Z,1010.43
2019-01-29T00:53:49.129Z,1010.42
2019-01-29T00:54:29.775Z,1010.44
2019-01-29T00:55:10.358Z,1010.43
2019-01-29T00:55:51.038Z,1010.44
2019-01-29T00:56:31.648Z,1010.43
2019-01-29T00:57:12.262Z,1010.42
2019-01-29T00:57:52.869Z,1010.46
2019-01-29T00:58:33.476Z,1010.5
2019-01-29T00:59:14.060Z,1010.51
2019-01-29T00:59:54.682Z,1010.52
2019-01-29T01:00:35.284Z,1010.52
2019-01-29T01:01:15.880Z,1010.59
2019-01-29T01:01:56.477Z,1010.53
2019-01-29T01:02:37.105Z,1010.57
2019-01-29T01:03:17.732Z,1010.59
2019-01-29T01:03:58.349Z,1010.59
2019-01-29T01:04:39.000Z,1010.59
2019-01-29T01:05:19.620Z,1010.6
2019-01-29T01:06:00.216Z,1010.58
2019-01-29T01:06:40.843Z,1010.58
2019-01-29T01:07:21.455Z,1010.56
2019-01-29T01:08:02.055Z,1010.57
2019-01-29T01:08:42.658Z,1010.53
2019-01-29T01:09:23.250Z,1010.5
2019-01-29T01:10:03.850Z,1010.5
2019-01-29T01:10:44.454Z,1010.53
2019-01-29T01:11:25.060Z,1010.5
2019-01-29T01:12:05.672Z,1010.49
2019-01-29T01:12:46.278Z,1010.48
2019-01-29T01:13:26.876Z,1010.49
2019-01-29T01:14:07.462Z,1010.5
2019-01-29T01:14:48.103Z,1010.52
2019-01-29T01:15:28.716Z,1010.5
2019-01-29T01:16:09.350Z,1010.51
2019-01-29T01:16:49.958Z,1010.48
2019-01-29T01:17:30.545Z,1010.47
2019-01-29T01:18:11.147Z,1010.49
2019-01-29T01:18:51.740Z,1010.48
2019-01-29T01:19:32.354Z,1010.49
2019-01-29T01:20:12.966Z,1010.53
2019-01-29T01:20:53.596Z,1010.55
2019-01-29T01:21:34.219Z,1010.54
2019-01-29T01:22:14.824Z,1010.55
2019-01-29T01:22:55.430Z,1010.51
2019-01-29T01:23:36.032Z,1010.47
2019-01-29T01:24:16.666Z,1010.46
2019-01-29T01:24:57.271Z,1010.48
2019-01-29T01:25:37.878Z,1010.43
2019-01-29T01:26:18.470Z,1010.43
2019-01-29T01:26:59.070Z,1010.41
2019-01-29T01:27:39.686Z,1010.44
2019-01-29T01:28:20.282Z,1010.4
2019-01-29T01:29:00.924Z,1010.35
2019-01-29T01:29:41.522Z,1010.38
2019-01-29T01:30:22.118Z,1010.36
2019-01-29T01:31:02.728Z,1010.32
2019-01-29T01:31:43.346Z,1010.29
2019-01-29T01:32:23.968Z,1010.28
2019-01-29T01:33:04.867Z,1010.29
2019-01-29T01:33:45.588Z,1010.29
2019-01-29T01:34:26.166Z,1010.34
2019-01-29T01:35:06.783Z,1010.4
2019-01-29T01:35:47.398Z,1010.47
2019-01-29T01:36:28.012Z,1010.49
2019-01-29T01:37:08.894Z,1010.52
2019-01-29T01:37:49.498Z,1010.58
2019-01-29T01:38:30.116Z,1010.62
2019-01-29T01:39:10.750Z,1010.64
2019-01-29T01:39:51.336Z,1010.65
2019-01-29T01:40:31.946Z,1010.68
2019-01-29T01:41:12.874Z,1010.71
2019-01-29T01:41:53.294Z,1010.71
2019-01-29T01:42:33.894Z,1010.72
2019-01-29T01:43:14.493Z,1010.71
2019-01-29T01:43:55.093Z,1010.71
2019-01-29T01:44:36.622Z,1010.69
2019-01-29T01:45:17.422Z,1010.7
2019-01-29T01:45:58.018Z,1010.71
2019-01-29T01:46:38.653Z,1010.72
2019-01-29T01:48:59.493Z,1010.7
2019-01-29T01:49:40.194Z,1010.69
2019-01-29T01:50:20.789Z,1010.71
2019-01-29T01:51:01.388Z,1010.72
2019-01-29T01:51:41.978Z,1010.7
2019-01-29T01:52:22.593Z,1010.74
2019-01-29T01:53:03.200Z,1010.7
2019-01-29T01:53:43.942Z,1010.72
2019-01-29T01:54:24.637Z,1010.73
2019-01-29T01:55:05.268Z,1010.73
2019-01-29T01:55:45.872Z,1010.78
2019-01-29T01:56:26.469Z,1010.76
2019-01-29T01:57:07.144Z,1010.77
2019-01-29T01:57:47.670Z,1010.75
2019-01-29T01:58:28.398Z,1010.79
2019-01-29T01:59:09.608Z,1010.79
2019-01-29T01:59:50.217Z,1010.78
2019-01-29T02:00:30.812Z,1010.8
2019-01-29T02:01:11.419Z,1010.82
2019-01-29T02:01:52.038Z,1010.84
2019-01-29T02:02:32.650Z,1010.85
2019-01-29T02:03:13.246Z,1010.86
2019-01-29T02:03:53.876Z,1010.84
2019-01-29T02:04:34.475Z,1010.84
2019-01-29T02:05:15.055Z,1010.88
2019-01-29T02:05:55.646Z,1010.84
2019-01-29T02:06:36.268Z,1010.82
2019-01-29T02:07:16.896Z,1010.79
2019-01-29T02:07:57.520Z,1010.85
2019-01-29T02:08:38.115Z,1010.87
2019-01-29T02:09:18.720Z,1010.87
2019-01-29T02:09:59.308Z,1010.85
2019-01-29T02:10:39.914Z,1010.86
2019-01-29T02:11:20.528Z,1010.85
2019-01-29T02:12:01.131Z,1010.82
2019-01-29T02:12:41.770Z,1010.78
2019-01-29T02:13:22.358Z,1010.76
2019-01-29T02:14:02.940Z,1010.77
2019-01-29T02:14:43.552Z,1010.78
2019-01-29T02:15:24.142Z,1010.75
2019-01-29T02:16:04.736Z,1010.78
2019-01-29T02:16:45.347Z,1010.79
2019-01-29T02:17:25.936Z,1010.77
2019-01-29T02:18:06.550Z,1010.79
2019-01-29T02:18:47.164Z,1010.7
2019-01-29T02:19:27.771Z,1010.66
2019-01-29T02:20:08.362Z,1010.69
2019-01-29T02:20:48.958Z,1010.69
2019-01-29T02:21:29.588Z,1010.66
2019-01-29T02:22:10.176Z,1010.66
2019-01-29T02:22:50.809Z,1010.68
2019-01-29T02:23:31.426Z,1010.67
2019-01-29T02:24:12.042Z,1010.68
2019-01-29T02:24:52.658Z,1010.69
2019-01-29T02:25:33.250Z,1010.7
2019-01-29T02:26:13.850Z,1010.71
2019-01-29T02:26:54.484Z,1010.73
2019-01-29T02:27:35.072Z,1010.71
2019-01-29T02:28:15.663Z,1010.7
2019-01-29T02:28:56.260Z,1010.69
2019-01-29T02:29:36.890Z,1010.72
2019-01-29T02:30:17.485Z,1010.71
2019-01-29T02:30:58.082Z,1010.77
2019-01-29T02:31:38.700Z,1010.78
2019-01-29T02:32:19.294Z,1010.83
2019-01-29T02:32:59.904Z,1010.83
2019-01-29T02:33:40.509Z,1010.85
2019-01-29T02:34:21.104Z,1010.88
2019-01-29T02:35:01.736Z,1010.86
2019-01-29T02:35:42.338Z,1010.88
2019-01-29T02:36:22.952Z,1010.88
2019-01-29T02:37:03.567Z,1010.89
2019-01-29T02:37:44.154Z,1010.88
2019-01-29T02:38:24.754Z,1010.89
2019-01-29T02:39:05.350Z,1010.9
2019-01-29T02:39:45.950Z,1010.83
2019-01-29T02:40:26.564Z,1010.84
2019-01-29T02:41:07.166Z,1010.82
2019-01-29T02:41:47.901Z,1010.75
2019-01-29T02:42:28.523Z,1010.75
2019-01-29T02:43:10.084Z,1010.71
2019-01-29T02:43:50.733Z,1010.69
2019-01-29T02:44:31.354Z,1010.61
2019-01-29T02:45:11.951Z,1010.56
2019-01-29T02:45:52.613Z,1010.56
2019-01-29T02:46:33.238Z,1010.49
2019-01-29T02:47:13.860Z,1010.45
2019-01-29T02:47:54.456Z,1010.41
2019-01-29T02:48:35.062Z,1010.39
2019-01-29T02:49:15.687Z,1010.36
2019-01-29T02:49:56.324Z,1010.34
2019-01-29T02:50:36.937Z,1010.37
2019-01-29T02:51:17.965Z,1010.39
2019-01-29T02:51:58.178Z,1010.39
2019-01-29T02:52:38.795Z,1010.46
2019-01-29T02:53:19.389Z,1010.49
2019-01-29T02:53:59.983Z,1010.53
2019-01-29T02:54:40.574Z,1010.56
2019-01-29T02:55:21.175Z,1010.6
2019-01-29T02:56:01.757Z,1010.64
2019-01-29T02:56:42.406Z,1010.61
2019-01-29T02:57:23.099Z,1010.63
2019-01-29T02:58:03.713Z,1010.57
2019-01-29T02:58:44.296Z,1010.57
2019-01-29T02:59:25.752Z,1010.52
2019-01-29T03:00:06.405Z,1010.43
2019-01-29T03:00:46.986Z,1010.33
2019-01-29T03:01:27.588Z,1010.32
2019-01-29T03:02:08.201Z,1010.28
2019-01-29T03:02:48.881Z,1010.25
2019-01-29T03:03:29.451Z,1010.29
2019-01-29T03:04:10.057Z,1010.26
2019-01-29T03:04:53.206Z,1010.24
2019-01-29T03:05:31.278Z,1010.24
2019-01-29T03:06:11.908Z,1010.26
2019-01-29T03:06:52.526Z,1010.28
2019-01-29T03:07:33.158Z,1010.27
2019-01-29T03:08:13.791Z,1010.27
2019-01-29T03:08:54.403Z,1010.26
2019-01-29T03:09:35.032Z,1010.24
2019-01-29T03:10:15.661Z,1010.24
2019-01-29T03:10:56.307Z,1010.28
2019-01-29T03:11:36.943Z,1010.3
2019-01-29T03:12:17.558Z,1010.32
2019-01-29T03:12:58.189Z,1010.3
2019-01-29T03:13:38.809Z,1010.31
2019-01-29T03:14:19.436Z,1010.24
2019-01-29T03:15:00.098Z,1010.29
2019-01-29T03:15:40.698Z,1010.24
2019-01-29T03:16:21.331Z,1010.31
2019-01-29T03:17:02.517Z,1010.33
2019-01-29T03:17:43.133Z,1010.36
2019-01-29T03:18:23.720Z,1010.34
2019-01-29T03:19:04.340Z,1010.4
2019-01-29T03:19:44.950Z,1010.34
2019-01-29T03:20:25.548Z,1010.36
2019-01-29T03:21:06.160Z,1010.35
2019-01-29T03:21:46.852Z,1010.35
2019-01-29T03:22:27.397Z,1010.3
2019-01-29T03:23:08.004Z,1010.28
2019-01-29T03:23:48.621Z,1010.28
2019-01-29T03:24:29.252Z,1010.27
2019-01-29T03:25:09.875Z,1010.25
2019-01-29T03:25:50.487Z,1010.27
2019-01-29T03:26:31.103Z,1010.26
2019-01-29T03:27:11.724Z,1010.23
2019-01-29T03:27:52.333Z,1010.19
2019-01-29T03:28:32.947Z,1010.16
2019-01-29T03:29:13.567Z,1010.16
2019-01-29T03:29:54.171Z,1010.19
2019-01-29T03:30:34.797Z,1010.22
2019-01-29T03:31:15.436Z,1010.27
2019-01-29T03:31:56.070Z,1010.3
2019-01-29T03:32:36.702Z,1010.34
2019-01-29T03:33:17.346Z,1010.33
2019-01-29T03:33:57.944Z,1010.37
2019-01-29T03:34:38.591Z,1010.45
2019-01-29T03:35:19.214Z,1010.42
2019-01-29T03:35:59.861Z,1010.4
2019-01-29T03:36:40.470Z,1010.37
2019-01-29T03:37:21.082Z,1010.36
2019-01-29T03:38:01.700Z,1010.33
2019-01-29T03:38:42.298Z,1010.34
2019-01-29T03:39:22.949Z,1010.32
2019-01-29T03:40:03.577Z,1010.33
2019-01-29T03:40:44.245Z,1010.33
2019-01-29T03:41:24.863Z,1010.34
2019-01-29T03:42:05.490Z,1010.38
2019-01-29T03:42:46.120Z,1010.34
2019-01-29T03:43:26.752Z,1010.34
2019-01-29T03:44:07.356Z,1010.38
2019-01-29T03:44:47.953Z,1010.39
2019-01-29T03:45:28.582Z,1010.46
2019-01-29T03:46:09.197Z,1010.49
2019-01-29T03:46:49.827Z,1010.49
2019-01-29T03:47:30.428Z,1010.51
2019-01-29T03:48:11.050Z,1010.57
2019-01-29T03:48:51.652Z,1010.56
2019-01-29T03:49:32.287Z,1010.55
2019-01-29T03:50:12.912Z,1010.59
2019-01-29T03:50:53.536Z,1010.58
2019-01-29T03:51:34.159Z,1010.58
2019-01-29T03:52:14.766Z,1010.55
2019-01-29T03:52:55.485Z,1010.57
2019-01-29T03:53:38.032Z,1010.62
2019-01-29T03:54:16.690Z,1010.6
2019-01-29T03:54:57.301Z,1010.6
2019-01-29T03:55:37.894Z,1010.6
2019-01-29T03:56:18.501Z,1010.61
2019-01-29T03:56:59.094Z,1010.66
2019-01-29T03:57:39.702Z,1010.66
2019-01-29T03:58:20.315Z,1010.69
2019-01-29T03:59:00.923Z,1010.67
2019-01-29T03:59:41.572Z,1010.68
2019-01-29T04:00:22.174Z,1010.7
2019-01-29T04:01:02.785Z,1010.67
2019-01-29T04:01:43.385Z,1010.66
2019-01-29T04:02:23.990Z,1010.66
2019-01-29T04:03:04.571Z,1010.64
2019-01-29T04:03:45.174Z,1010.63
2019-01-29T04:04:25.773Z,1010.64
2019-01-29T04:05:06.365Z,1010.63
2019-01-29T04:05:46.968Z,1010.55
2019-01-29T04:06:27.601Z,1010.55
2019-01-29T04:07:08.222Z,1010.52
2019-01-29T04:07:48.857Z,1010.5
2019-01-29T04:08:29.444Z,1010.46
2019-01-29T04:09:10.051Z,1010.41
2019-01-29T04:09:50.641Z,1010.39
2019-01-29T04:10:31.250Z,1010.36
2019-01-29T04:11:11.847Z,1010.36
2019-01-29T04:11:52.479Z,1010.4
2019-01-29T04:12:33.072Z,1010.34
2019-01-29T04:13:13.680Z,1010.36
2019-01-29T04:13:54.283Z,1010.36
2019-01-29T04:14:34.894Z,1010.38
2019-01-29T04:15:15.497Z,1010.36
2019-01-29T04:15:56.119Z,1010.37
2019-01-29T04:16:36.728Z,1010.37
2019-01-29T04:17:17.338Z,1010.32
2019-01-29T04:17:57.927Z,1010.31
2019-01-29T04:18:38.530Z,1010.3
2019-01-29T04:19:19.125Z,1010.3
2019-01-29T04:19:59.737Z,1010.36
2019-01-29T04:20:40.325Z,1010.39
2019-01-29T04:21:20.916Z,1010.45
2019-01-29T04:22:01.507Z,1010.49
2019-01-29T04:22:42.104Z,1010.5
2019-01-29T04:23:22.709Z,1010.48
2019-01-29T04:24:03.303Z,1010.51
2019-01-29T04:24:43.899Z,1010.49
2019-01-29T04:25:24.486Z,1010.46
2019-01-29T04:26:05.094Z,1010.47
2019-01-29T04:26:45.702Z,1010.43
2019-01-29T04:27:26.298Z,1010.47
2019-01-29T04:28:06.887Z,1010.49
2019-01-29T04:28:47.487Z,1010.55
2019-01-29T04:29:28.094Z,1010.59
2019-01-29T04:30:08.707Z,1010.68
2019-01-29T04:30:49.316Z,1010.68
2019-01-29T04:31:29.909Z,1010.64
2019-01-29T04:32:10.521Z,1010.65
2019-01-29T04:32:51.123Z,1010.65
2019-01-29T04:33:31.721Z,1010.64
2019-01-29T04:34:12.325Z,1010.59
2019-01-29T04:34:52.930Z,1010.55
2019-01-29T04:35:33.544Z,1010.55
2019-01-29T04:36:14.150Z,1010.52
2019-01-29T04:36:54.770Z,1010.48
2019-01-29T04:37:35.372Z,1010.45
2019-01-29T04:38:15.984Z,1010.5
2019-01-29T04:38:56.568Z,1010.53
2019-01-29T04:39:37.181Z,1010.52
2019-01-29T04:40:17.785Z,1010.56
2019-01-29T04:40:58.363Z,1010.6
2019-01-29T04:41:38.979Z,1010.56
2019-01-29T04:42:19.594Z,1010.57
2019-01-29T04:43:00.208Z,1010.62
2019-01-29T04:43:40.843Z,1010.48
2019-01-29T04:44:21.447Z,1010.5
2019-01-29T04:45:02.143Z,1010.46
2019-01-29T04:45:42.699Z,1010.42
2019-01-29T04:46:23.307Z,1010.45
2019-01-29T04:47:03.920Z,1010.45
2019-01-29T04:47:44.536Z,1010.43
2019-01-29T04:48:25.131Z,1010.43
2019-01-29T04:49:05.751Z,1010.47
2019-01-29T04:49:46.361Z,1010.45
2019-01-29T04:50:26.958Z,1010.44
2019-01-29T04:51:07.565Z,1010.43
2019-01-29T04:51:48.183Z,1010.39
2019-01-29T04:52:28.798Z,1010.41
2019-01-29T04:53:09.401Z,1010.41
2019-01-29T04:53:57.048Z,1010.48
2019-01-29T04:54:30.631Z,1010.5
2019-01-29T04:55:11.243Z,1010.48
2019-01-29T04:55:51.849Z,1010.53
2019-01-29T04:56:32.463Z,1010.51
2019-01-29T04:57:13.085Z,1010.46
2019-01-29T04:57:53.698Z,1010.45
2019-01-29T04:58:34.355Z,1010.41
2019-01-29T04:59:15.008Z,1010.42
2019-01-29T04:59:55.665Z,1010.4
2019-01-29T05:00:36.279Z,1010.41
2019-01-29T05:01:18.430Z,1010.38
2019-01-29T05:01:57.553Z,1010.4
2019-01-29T05:02:38.159Z,1010.43
2019-01-29T05:03:18.763Z,1010.46
2019-01-29T05:03:59.386Z,1010.5
2019-01-29T05:04:39.995Z,1010.52
2019-01-29T05:05:20.617Z,1010.53
2019-01-29T05:06:01.223Z,1010.58
2019-01-29T05:06:41.846Z,1010.6
2019-01-29T05:07:22.453Z,1010.6
2019-01-29T05:08:03.066Z,1010.62
2019-01-29T05:08:43.682Z,1010.61
2019-01-29T05:09:24.299Z,1010.6
2019-01-29T05:10:04.922Z,1010.6
2019-01-29T05:10:45.522Z,1010.6
2019-01-29T05:11:26.135Z,1010.58
2019-01-29T05:12:06.741Z,1010.59
2019-01-29T05:12:47.361Z,1010.56
2019-01-29T05:13:27.963Z,1010.54
2019-01-29T05:14:08.580Z,1010.56
2019-01-29T05:14:49.203Z,1010.55
2019-01-29T05:15:29.819Z,1010.59
2019-01-29T05:16:10.425Z,1010.54
2019-01-29T05:16:51.050Z,1010.52
2019-01-29T05:17:31.649Z,1010.51
2019-01-29T05:18:12.271Z,1010.54
2019-01-29T05:18:52.881Z,1010.53
2019-01-29T05:19:33.489Z,1010.52
2019-01-29T05:20:14.118Z,1010.58
2019-01-29T05:20:54.714Z,1010.58
2019-01-29T05:21:35.332Z,1010.58
2019-01-29T05:22:15.939Z,1010.55
2019-01-29T05:22:56.564Z,1010.54
2019-01-29T05:23:37.174Z,1010.57
2019-01-29T05:24:17.779Z,1010.52
2019-01-29T05:24:58.375Z,1010.53
2019-01-29T05:25:38.987Z,1010.57
2019-01-29T05:26:19.591Z,1010.59
2019-01-29T05:27:00.209Z,1010.56
2019-01-29T05:27:40.827Z,1010.6
2019-01-29T05:28:21.440Z,1010.58
2019-01-29T05:29:02.139Z,1010.58
2019-01-29T05:29:42.774Z,1010.61
2019-01-29T05:30:23.371Z,1010.58
2019-01-29T05:31:04.019Z,1010.6
2019-01-29T05:31:44.623Z,1010.61
2019-01-29T05:32:25.229Z,1010.59
2019-01-29T05:33:05.837Z,1010.55
2019-01-29T05:33:46.459Z,1010.54
2019-01-29T05:34:27.065Z,1010.57
2019-01-29T05:35:07.696Z,1010.53
2019-01-29T05:35:48.303Z,1010.61
2019-01-29T05:36:28.901Z,1010.56
2019-01-29T05:37:09.579Z,1010.6
2019-01-29T05:37:50.205Z,1010.57
2019-01-29T05:38:30.822Z,1010.6
2019-01-29T05:39:11.433Z,1010.6
2019-01-29T05:39:52.049Z,1010.6
2019-01-29T05:40:32.687Z,1010.61
2019-01-29T05:41:13.343Z,1010.58
2019-01-29T05:41:53.965Z,1010.54
2019-01-29T05:42:34.579Z,1010.54
2019-01-29T05:43:15.189Z,1010.55
2019-01-29T05:43:55.815Z,1010.53
2019-01-29T05:44:36.435Z,1010.52
2019-01-29T05:45:17.060Z,1010.51
2019-01-29T05:45:57.701Z,1010.55
2019-01-29T05:46:38.301Z,1010.53
2019-01-29T05:47:18.901Z,1010.53
2019-01-29T05:47:59.525Z,1010.55
2019-01-29T05:48:40.219Z,1010.52
2019-01-29T05:49:20.861Z,1010.53
2019-01-29T05:50:01.467Z,1010.5
2019-01-29T05:50:42.077Z,1010.53
2019-01-29T05:51:22.683Z,1010.55
2019-01-29T05:52:03.277Z,1010.53
2019-01-29T05:52:43.882Z,1010.52
2019-01-29T05:53:24.491Z,1010.5
2019-01-29T05:54:05.104Z,1010.51
2019-01-29T05:54:45.727Z,1010.52
2019-01-29T05:55:26.332Z,1010.49
2019-01-29T05:56:07.058Z,1010.47
2019-01-29T05:56:47.703Z,1010.49
2019-01-29T05:59:18.499Z,1010.5
2019-01-29T05:59:59.079Z,1010.49
2019-01-29T06:00:39.689Z,1010.51
2019-01-29T06:01:20.343Z,1010.47
2019-01-29T06:02:00.959Z,1010.53
2019-01-29T06:02:41.584Z,1010.52
2019-01-29T06:03:22.198Z,1010.57
2019-01-29T06:04:02.794Z,1010.58
2019-01-29T06:04:43.431Z,1010.59
2019-01-29T06:05:24.047Z,1010.6
2019-01-29T06:06:04.671Z,1010.64
2019-01-29T06:06:45.310Z,1010.66
2019-01-29T06:07:25.903Z,1010.66
2019-01-29T06:08:06.525Z,1010.68
2019-01-29T06:08:47.127Z,1010.73
2019-01-29T06:09:27.729Z,1010.73
2019-01-29T06:10:08.349Z,1010.74
2019-01-29T06:10:48.967Z,1010.74
2019-01-29T06:11:29.571Z,1010.72
2019-01-29T06:12:10.223Z,1010.69
2019-01-29T06:12:50.824Z,1010.65
2019-01-29T06:13:31.412Z,1010.6
2019-01-29T06:14:12.040Z,1010.6
2019-01-29T06:14:52.649Z,1010.56
2019-01-29T06:15:33.259Z,1010.58
2019-01-29T06:16:13.867Z,1010.56
2019-01-29T06:16:54.484Z,1010.59
2019-01-29T06:17:35.107Z,1010.55
2019-01-29T06:18:15.713Z,1010.52
2019-01-29T06:18:56.325Z,1010.46
2019-01-29T06:19:36.959Z,1010.46
2019-01-29T06:20:18.470Z,1010.42
2019-01-29T06:20:58.199Z,1010.44
2019-01-29T06:21:38.815Z,1010.43
2019-01-29T06:22:19.437Z,1010.44
2019-01-29T06:23:00.079Z,1010.41
2019-01-29T06:23:40.700Z,1010.39
2019-01-29T06:24:25.709Z,1010.41
2019-01-29T06:25:01.975Z,1010.46
2019-01-29T06:25:42.562Z,1010.46
2019-01-29T06:26:23.169Z,1010.49
2019-01-29T06:27:03.795Z,1010.5
2019-01-29T06:27:44.409Z,1010.53
2019-01-29T06:28:25.034Z,1010.51
2019-01-29T06:29:05.707Z,1010.55
2019-01-29T06:29:46.317Z,1010.58
2019-01-29T06:30:26.934Z,1010.57
2019-01-29T06:31:07.549Z,1010.57
2019-01-29T06:31:48.161Z,1010.58
2019-01-29T06:32:28.769Z,1010.54
2019-01-29T06:33:09.357Z,1010.5
2019-01-29T06:33:49.995Z,1010.45
2019-01-29T06:34:30.615Z,1010.45
2019-01-29T06:35:11.223Z,1010.43
2019-01-29T06:35:51.827Z,1010.44
2019-01-29T06:36:32.429Z,1010.41
2019-01-29T06:37:13.047Z,1010.41
2019-01-29T06:37:53.715Z,1010.38
2019-01-29T06:38:34.329Z,1010.38
2019-01-29T06:39:15.003Z,1010.34
2019-01-29T06:39:55.615Z,1010.3
2019-01-29T06:40:36.423Z,1010.31
2019-01-29T06:41:17.017Z,1010.26
2019-01-29T06:41:57.675Z,1010.26
2019-01-29T06:42:38.301Z,1010.28
2019-01-29T06:43:18.905Z,1010.27
2019-01-29T06:43:59.523Z,1010.27
2019-01-29T06:44:40.145Z,1010.25
2019-01-29T06:45:20.833Z,1010.25
2019-01-29T06:46:01.533Z,1010.29
2019-01-29T06:46:42.255Z,1010.28
2019-01-29T06:47:22.849Z,1010.28
2019-01-29T06:48:03.463Z,1010.21
2019-01-29T06:48:44.102Z,1010.18
2019-01-29T06:49:24.732Z,1010.2
2019-01-29T06:50:05.345Z,1010.19
2019-01-29T06:50:45.955Z,1010.18
2019-01-29T06:51:26.571Z,1010.21
2019-01-29T06:52:07.243Z,1010.24
2019-01-29T06:52:47.869Z,1010.26
2019-01-29T06:53:28.507Z,1010.28
2019-01-29T06:54:09.109Z,1010.28
2019-01-29T06:54:49.725Z,1010.28
2019-01-29T06:55:30.373Z,1010.29
2019-01-29T06:56:11.010Z,1010.21
2019-01-29T06:56:51.647Z,1010.2
2019-01-29T06:57:32.251Z,1010.17
2019-01-29T06:58:12.935Z,1010.17
2019-01-29T06:58:53.594Z,1010.26
2019-01-29T06:59:34.223Z,1010.26
2019-01-29T07:00:14.831Z,1010.28
2019-01-29T07:00:55.449Z,1010.28
2019-01-29T07:01:36.059Z,1010.27
2019-01-29T07:02:16.673Z,1010.22
2019-01-29T07:02:57.289Z,1010.17
2019-01-29T07:03:37.929Z,1010.11
2019-01-29T07:04:18.592Z,1010.14
2019-01-29T07:04:59.219Z,1010.16
2019-01-29T07:05:39.829Z,1010.15
2019-01-29T07:06:20.460Z,1010.16
2019-01-29T07:07:01.059Z,1010.14
2019-01-29T07:07:41.773Z,1010.15
2019-01-29T07:08:22.421Z,1010.18
2019-01-29T07:09:03.059Z,1010.16
2019-01-29T07:09:43.666Z,1010.09
2019-01-29T07:10:24.259Z,1010.12
2019-01-29T07:11:04.879Z,1010.16
2019-01-29T07:11:45.476Z,1010.17
2019-01-29T07:12:26.097Z,1010.19
2019-01-29T07:13:06.717Z,1010.22
2019-01-29T07:13:47.347Z,1010.22
2019-01-29T07:14:27.983Z,1010.25
2019-01-29T07:15:08.589Z,1010.23
2019-01-29T07:15:49.219Z,1010.23
2019-01-29T07:16:29.821Z,1010.25
2019-01-29T07:17:10.464Z,1010.23
2019-01-29T07:17:51.099Z,1010.24
2019-01-29T07:18:31.727Z,1010.23
2019-01-29T07:19:12.351Z,1010.23
2019-01-29T07:19:52.945Z,1010.21
2019-01-29T07:20:33.646Z,1010.16
2019-01-29T07:21:14.259Z,1010.16
2019-01-29T07:21:54.870Z,1010.15
2019-01-29T07:22:35.483Z,1010.15
2019-01-29T07:23:16.108Z,1010.18
2019-01-29T07:23:56.715Z,1010.17
2019-01-29T07:24:42.567Z,1010.17
2019-01-29T07:25:17.931Z,1010.19
2019-01-29T07:25:58.551Z,1010.21
2019-01-29T07:26:39.180Z,1010.18
2019-01-29T07:27:19.828Z,1010.18
2019-01-29T07:28:00.434Z,1010.21
2019-01-29T07:28:41.049Z,1010.2
2019-01-29T07:29:21.651Z,1010.21
2019-01-29T07:30:02.258Z,1010.22
2019-01-29T07:30:42.864Z,1010.26
2019-01-29T07:31:23.475Z,1010.26
2019-01-29T07:32:04.096Z,1010.3
2019-01-29T07:32:44.709Z,1010.3
2019-01-29T07:33:25.335Z,1010.3
2019-01-29T07:34:05.947Z,1010.35
2019-01-29T07:34:46.552Z,1010.33
2019-01-29T07:35:27.161Z,1010.39
2019-01-29T07:36:07.769Z,1010.36
2019-01-29T07:36:48.366Z,1010.35
2019-01-29T07:37:29.017Z,1010.34
2019-01-29T07:38:09.607Z,1010.33
2019-01-29T07:38:50.237Z,1010.24
2019-01-29T07:39:30.867Z,1010.28
2019-01-29T07:40:11.525Z,1010.2
2019-01-29T07:40:52.087Z,1010.21
2019-01-29T07:41:32.813Z,1010.21
2019-01-29T07:42:13.421Z,1010.17
2019-01-29T07:42:54.083Z,1010.15
2019-01-29T07:43:34.689Z,1010.17
2019-01-29T07:44:15.320Z,1010.18
2019-01-29T07:44:55.945Z,1010.14
2019-01-29T07:45:36.609Z,1010.18
2019-01-29T07:46:17.241Z,1010.14
2019-01-29T07:46:57.843Z,1010.15
2019-01-29T07:47:38.460Z,1010.14
2019-01-29T07:48:19.096Z,1010.12
2019-01-29T07:48:59.706Z,1010.13
2019-01-29T07:49:40.311Z,1010.1
2019-01-29T07:50:20.903Z,1010.1
2019-01-29T07:51:01.501Z,1010.1
2019-01-29T07:51:42.170Z,1010.14
2019-01-29T07:52:22.781Z,1010.1
2019-01-29T07:53:03.374Z,1010.09
2019-01-29T07:53:43.990Z,1010.09
2019-01-29T07:54:33.043Z,1010.15
2019-01-29T07:55:05.208Z,1010.18
2019-01-29T07:55:45.812Z,1010.24
2019-01-29T07:56:26.413Z,1010.29
2019-01-29T07:57:07.059Z,1010.27
2019-01-29T07:57:47.667Z,1010.32
2019-01-29T07:58:28.275Z,1010.32
2019-01-29T07:59:08.890Z,1010.36
2019-01-29T07:59:49.500Z,1010.38
2019-01-29T08:00:30.101Z,1010.39
2019-01-29T08:01:10.700Z,1010.42
2019-01-29T08:01:51.314Z,1010.49
2019-01-29T08:02:31.970Z,1010.45
2019-01-29T08:03:12.571Z,1010.48
2019-01-29T08:03:53.216Z,1010.45
2019-01-29T08:04:33.814Z,1010.46
2019-01-29T08:05:14.414Z,1010.44
2019-01-29T08:05:55.026Z,1010.45
2019-01-29T08:06:35.626Z,1010.45
2019-01-29T08:07:16.272Z,1010.41
2019-01-29T08:07:56.879Z,1010.4
2019-01-29T08:08:37.505Z,1010.4
2019-01-29T08:09:18.109Z,1010.37
2019-01-29T08:09:58.716Z,1010.37
2019-01-29T08:10:39.333Z,1010.34
2019-01-29T08:11:19.948Z,1010.29
2019-01-29T08:12:00.557Z,1010.23
2019-01-29T08:12:41.177Z,1010.2
2019-01-29T08:13:21.773Z,1010.2
2019-01-29T08:14:02.377Z,1010.17
2019-01-29T08:14:42.986Z,1010.17
2019-01-29T08:15:23.596Z,1010.17
2019-01-29T08:16:04.182Z,1010.14
2019-01-29T08:16:44.806Z,1010.18